首页
METAR-TAF:

METAR-TAF

机场 :

阿馬里洛, 得克萨斯州, 美国

纬度: 35-13-12N, 经度: 101-43-02W, 海拔: 1099米

当前天气观测

该预报发布于1小时和3分钟前的16:53 UTC
风速6节,风向北转东北
温度 28°C
湿度 42%
气压 1022 hPa
能見度: 16.1公里
少量云层高于4900英尺
少量云层高于7000英尺

METAR: KAMA 221653Z 02006KT 10SM FEW049 FEW070 28/14 A3018 RMK AO2 SLP165 T02780139

时间: 12:56 (17:56 UTC)

预报

该预报发布于27分钟前的17:29 UTC
预报有效从22日的 18点(UTC)到 23日的 18点(UTC)
风速5节,风向东北
能見度: 10公里
散云层高于4000英尺
多云层高于22000英尺
从 22日的 1900点(UTC)
风速4节,风向多变
能見度: 10公里
少量云层高于4500英尺, 积雨云.
散云层高于21000英尺
附近有雷暴
从 23日的 0400点(UTC)
风速5节,风向
能見度: 10公里
少量云层高于20000英尺

TAF: KAMA 221729Z 2218/2318 05005KT P6SM SCT040 BKN220 FM221900 VRB04KT P6SM VCTS FEW045CB SCT210 FM230400 17005KT P6SM FEW200

超过4000个机场的气象观测和天气预报(METAR&TAF报告)。

可查询的气象台以黄色和红色小点在地图上表示。

将鼠标移到小点上方,可查看气象台名称。

然后点击查看天气观测和预报。

如需切换地图:点击带黑十字的绿色按钮放大地图;点击带横线的绿色按钮缩小地图;或者点击绿色箭头查看邻近地区的地图。


METAR-TAF: